Time;durP1;ratioP1;P1;durP2;ratioP2;P2;SDS_P1;SDS_P2;PMS_P1;PMS_P2;Temp;Humidity;BMP_temperature;BMP_pressure;BME280_temperature;BME280_humidity;BME280_pressure;Samples;Min_cycle;Max_cycle;Signal;HPM_P1;HPM_P2
2023/05/31 00:01:57;;;;;;;;;0.00;0.00;;;;;-146.67;32.50;74781.41;5005037;28;62058;-84
2023/05/31 00:04:22;;;;;;;;;0.00;0.00;;;;;-146.67;32.51;74787.41;5005533;28;62579;-84
2023/05/31 00:06:47;;;;;;;;;0.00;0.00;;;;;-146.67;32.23;74787.41;5023384;28;61840;-84
2023/05/31 00:09:13;;;;;;;;;0.00;0.00;;;;;-146.67;32.14;74789.41;5022345;28;62062;-84
2023/05/31 00:11:38;;;;;;;;;0.00;0.00;;;;;-146.67;32.61;74797.38;5023064;28;61874;-83
2023/05/31 00:14:03;;;;;;;;;0.00;0.00;;;;;-146.67;32.51;74793.41;5023354;28;62040;-84
2023/05/31 00:16:29;;;;;;;;;0.00;0.00;;;;;-146.67;32.38;74791.41;5023202;28;61909;-84
2023/05/31 00:18:54;;;;;;;;;0.00;0.00;;;;;-146.67;32.26;74799.38;5022488;28;61795;-84
2023/05/31 00:21:20;;;;;;;;;0.00;0.00;;;;;-146.67;32.34;74799.38;5022442;28;61821;-84
2023/05/31 00:23:45;;;;;;;;;0.00;0.00;;;;;-146.67;32.23;74797.38;5005610;28;62115;-84
2023/05/31 00:26:11;;;;;;;;;0.00;0.00;;;;;-146.67;32.36;74805.38;5005240;28;61998;-83
2023/05/31 00:28:36;;;;;;;;;0.00;0.00;;;;;-146.67;32.72;74799.38;5022899;28;61910;-84
2023/05/31 00:31:02;;;;;;;;;0.00;0.00;;;;;-146.67;32.55;74797.38;5004690;28;62140;-84
2023/05/31 00:33:28;;;;;;;;;0.00;0.00;;;;;-146.67;32.43;74809.38;5005487;28;61855;-84
2023/05/31 00:35:53;;;;;;;;;0.00;0.00;;;;;-146.67;32.53;74809.38;5022519;28;61879;-84
2023/05/31 00:38:19;;;;;;;;;0.00;0.00;;;;;-146.67;32.56;74825.34;5022326;28;62019;-83
2023/05/31 00:40:44;;;;;;;;;0.00;0.00;;;;;-146.67;32.55;74799.38;5023127;28;62011;-83
2023/05/31 00:43:10;;;;;;;;;0.00;0.00;;;;;-146.67;32.78;74803.38;5022894;28;61720;-84
2023/05/31 00:45:36;;;;;;;;;0.00;0.00;;;;;-146.67;32.89;74821.34;5005190;28;61862;-83
2023/05/31 00:48:02;;;;;;;;;0.00;0.00;;;;;-146.67;32.57;74827.34;5021941;28;61785;-84
2023/05/31 00:50:27;;;;;;;;;0.00;0.00;;;;;-146.67;33.01;74839.31;5022327;28;61976;-83
2023/05/31 00:52:56;;;;;;;;;0.00;0.00;;;;;-146.67;32.79;74837.31;5021458;28;61947;-83
2023/05/31 00:55:22;;;;;;;;;0.00;0.00;;;;;-146.67;32.80;74833.31;5005193;28;61759;-83
2023/05/31 00:57:47;;;;;;;;;0.00;0.00;;;;;-146.67;32.80;74831.34;5004409;28;63945;-84
2023/05/31 01:00:14;;;;;;;;;0.00;0.00;;;;;-146.67;32.55;74837.31;5004199;28;61947;-84
2023/05/31 01:02:41;;;;;;;;;0.00;0.00;;;;;-146.67;33.28;74861.28;5004590;28;62122;-84
2023/05/31 01:05:07;;;;;;;;;0.00;0.00;;;;;-146.67;33.10;74851.31;5004465;28;62674;-84
2023/05/31 01:07:33;;;;;;;;;0.00;0.00;;;;;-146.67;33.14;74851.31;5007305;28;62015;-83
2023/05/31 01:10:00;;;;;;;;;7.25;7.00;;;;;-146.67;33.24;74845.31;5001623;28;62096;-83
2023/05/31 01:12:53;;;;;;;;;0.00;0.00;;;;;-146.67;32.92;74843.31;5002472;28;61852;-84
2023/05/31 01:15:20;;;;;;;;;0.00;0.00;;;;;-146.67;33.36;74873.25;5002610;28;61746;-83
2023/05/31 01:17:59;;;;;;;;;0.00;0.00;;;;;-146.67;33.27;74863.28;4999967;28;64166;-84
2023/05/31 01:20:27;;;;;;;;;13.50;13.25;;;;;-146.67;33.49;74855.28;5003903;28;62097;-84
2023/05/31 01:23:03;;;;;;;;;0.00;0.00;;;;;-146.67;33.32;74859.28;5003324;28;61885;-83
2023/05/31 01:25:56;;;;;;;;;0.00;0.00;;;;;-146.67;33.25;74859.28;5022308;28;61927;-83
2023/05/31 01:28:25;;;;;;;;;0.00;0.00;;;;;-146.67;33.26;74867.28;5003773;28;65118;-83
2023/05/31 01:30:52;;;;;;;;;0.00;0.00;;;;;-146.67;33.21;74861.28;5004056;28;61921;-83
2023/05/31 01:33:19;;;;;;;;;9.75;7.00;;;;;-146.67;33.27;74857.28;5004057;28;61866;-83
2023/05/31 01:35:44;;;;;;;;;7.00;7.00;;;;;-146.67;33.20;74845.31;5004481;28;61952;-83
2023/05/31 01:38:10;;;;;;;;;0.00;0.00;;;;;-146.67;33.27;74847.31;5021578;28;61933;-84
2023/05/31 01:40:36;;;;;;;;;11.50;9.00;;;;;-146.67;33.41;74851.31;5021825;28;61995;-83
2023/05/31 01:43:04;;;;;;;;;0.00;0.00;;;;;-146.67;33.16;74847.31;5022177;28;61987;-84
2023/05/31 01:45:30;;;;;;;;;14.00;11.25;;;;;-146.67;33.63;74863.28;5021492;28;61777;-84
2023/05/31 01:48:01;;;;;;;;;16.25;12.75;;;;;-146.67;33.45;74859.28;5002827;28;65295;-84
2023/05/31 01:50:28;;;;;;;;;0.00;0.00;;;;;-146.67;33.03;74863.28;5021926;28;61862;-83
2023/05/31 01:52:53;;;;;;;;;0.00;0.00;;;;;-146.67;33.36;74855.28;5022079;28;61730;-83
2023/05/31 01:55:19;;;;;;;;;0.00;0.00;;;;;-146.67;33.14;74851.31;5022338;28;61944;-83
2023/05/31 01:57:46;;;;;;;;;0.00;0.00;;;;;-146.67;33.05;74859.28;5003331;28;63863;-84
2023/05/31 02:00:14;;;;;;;;;0.00;0.00;;;;;-146.67;33.26;74873.25;5004179;28;61917;-84
2023/05/31 02:02:43;;;;;;;;;0.00;0.00;;;;;-146.67;33.35;74871.25;5021414;28;62002;-84
2023/05/31 02:05:13;;;;;;;;;0.00;0.00;;;;;-146.67;33.53;74881.25;5003999;28;61872;-83
2023/05/31 02:07:43;;;;;;;;;0.00;0.00;;;;;-146.67;33.35;74889.22;5021324;28;62905;-83
2023/05/31 02:10:10;;;;;;;;;8.25;7.25;;;;;-146.67;34.00;74891.22;5021928;28;61833;-83
2023/05/31 02:12:35;;;;;;;;;14.50;10.75;;;;;-146.67;34.08;74897.22;5021288;28;61730;-84
2023/05/31 02:15:01;;;;;;;;;0.00;0.00;;;;;-146.67;33.47;74899.22;5022166;28;61917;-84
2023/05/31 02:17:28;;;;;;;;;0.00;0.00;;;;;-146.67;33.70;74895.22;5019968;28;61894;-83
2023/05/31 02:19:55;;;;;;;;;0.00;0.00;;;;;-146.67;33.35;74881.25;5003925;28;61877;-83
2023/05/31 02:22:21;;;;;;;;;0.00;0.00;;;;;-146.67;33.54;74881.25;5021469;28;62141;-83
2023/05/31 02:24:47;;;;;;;;;0.00;0.00;;;;;-146.67;33.39;74883.25;5003856;28;62015;-84
2023/05/31 02:27:13;;;;;;;;;0.00;0.00;;;;;-146.67;33.23;74891.22;5021083;28;62006;-84
2023/05/31 02:29:38;;;;;;;;;0.00;0.00;;;;;-146.67;33.69;74909.19;5003635;28;61821;-84
2023/05/31 02:32:04;;;;;;;;;13.25;12.25;;;;;-146.67;34.27;74919.19;5002788;28;61906;-83
2023/05/31 02:34:30;;;;;;;;;15.25;11.75;;;;;-146.67;34.26;74927.16;5022624;28;61786;-84
2023/05/31 02:36:56;;;;;;;;;0.00;0.00;;;;;-146.67;33.68;74925.19;5006148;28;63511;-83
2023/05/31 02:39:21;;;;;;;;;0.00;0.00;;;;;-146.67;33.97;74919.19;5007276;28;61797;-83
2023/05/31 02:41:47;;;;;;;;;10.00;5.75;;;;;-146.67;34.03;74931.16;5006878;28;62530;-84
2023/05/31 02:44:13;;;;;;;;;0.00;0.00;;;;;-146.67;34.06;74943.16;5007159;28;61921;-83
2023/05/31 02:46:39;;;;;;;;;0.00;0.00;;;;;-146.67;33.85;74947.13;5023666;28;62905;-83
2023/05/31 02:49:06;;;;;;;;;15.25;12.00;;;;;-146.67;34.10;74949.13;5024031;28;61790;-83
2023/05/31 02:51:31;;;;;;;;;0.00;0.00;;;;;-146.67;34.23;74961.13;5024840;28;61922;-83
2023/05/31 02:53:57;;;;;;;;;10.75;10.25;;;;;-146.67;34.63;74959.13;5006766;28;62456;-83
2023/05/31 02:56:23;;;;;;;;;0.00;0.00;;;;;-146.67;34.27;74977.09;5006177;28;64085;-83
2023/05/31 02:58:48;;;;;;;;;0.00;0.00;;;;;-146.67;34.42;74965.09;5006549;28;62093;-83
2023/05/31 03:01:14;;;;;;;;;7.50;6.75;;;;;-146.67;34.28;74955.13;5024143;28;61902;-83
2023/05/31 03:03:40;;;;;;;;;17.00;13.75;;;;;-146.67;34.54;74955.13;5024157;28;62022;-83
2023/05/31 03:06:06;;;;;;;;;12.50;11.25;;;;;-146.67;34.47;74959.13;5023578;28;63044;-83
2023/05/31 03:08:32;;;;;;;;;0.00;0.00;;;;;-146.67;34.79;74979.09;5024472;28;61907;-83
2023/05/31 03:10:57;;;;;;;;;0.00;0.00;;;;;-146.67;34.67;74987.06;5006414;28;62146;-83
2023/05/31 03:13:22;;;;;;;;;9.00;7.75;;;;;-146.67;34.90;74973.09;5006630;28;61855;-83
2023/05/31 03:15:48;;;;;;;;;17.25;16.00;;;;;-146.67;34.79;74991.06;5022706;28;62960;-83
2023/05/31 03:18:14;;;;;;;;;0.00;0.00;;;;;-146.67;34.19;74999.06;5005898;28;61891;-83
2023/05/31 03:20:39;;;;;;;;;7.75;6.50;;;;;-146.67;34.65;75019.03;5023860;28;61952;-83
2023/05/31 03:23:06;;;;;;;;;22.50;15.25;;;;;-146.67;35.45;75035.00;5022573;28;61946;-82
2023/05/31 03:25:32;;;;;;;;;17.25;14.75;;;;;-146.67;35.63;75040.97;5022089;28;62020;-84
2023/05/31 03:27:57;;;;;;;;;0.00;0.00;;;;;-146.67;35.27;75050.97;5022098;28;61997;-83
2023/05/31 03:30:23;;;;;;;;;14.25;12.75;;;;;-146.67;35.15;75060.94;5004733;28;61887;-83
2023/05/31 03:32:48;;;;;;;;;17.25;16.00;;;;;-146.67;35.63;75068.94;5004862;28;61832;-83
2023/05/31 03:35:14;;;;;;;;;9.00;7.50;;;;;-146.67;35.73;75076.94;5023537;28;61643;-83
2023/05/31 03:37:39;;;;;;;;;0.00;0.00;;;;;-146.67;35.52;75066.94;5006085;28;61753;-84
2023/05/31 03:40:05;;;;;;;;;16.75;14.50;;;;;-146.67;35.55;75064.94;5023435;28;62549;-83
2023/05/31 03:42:31;;;;;;;;;0.00;0.00;;;;;-146.67;34.97;75037.00;5024170;28;61881;-83
2023/05/31 03:44:57;;;;;;;;;11.75;10.50;;;;;-146.67;35.32;75009.03;5003533;28;64992;-83
2023/05/31 03:47:22;;;;;;;;;15.25;13.25;;;;;-146.67;35.52;75029.00;5004899;28;62270;-84
2023/05/31 03:49:48;;;;;;;;;16.00;14.25;;;;;-146.67;35.21;75029.00;5023651;28;61904;-84
2023/05/31 03:52:13;;;;;;;;;23.75;14.50;;;;;-146.67;35.52;75046.97;5023052;28;61872;-83
2023/05/31 03:54:39;;;;;;;;;0.00;0.00;;;;;-146.67;34.96;75044.97;5023353;28;61998;-83
2023/05/31 03:57:06;;;;;;;;;16.75;15.25;;;;;-146.67;35.53;75050.97;5023069;28;61770;-84
2023/05/31 03:59:31;;;;;;;;;16.00;12.00;;;;;-146.67;35.29;75054.97;5005425;28;61782;-83
2023/05/31 04:01:56;;;;;;;;;18.25;17.25;;;;;-146.67;35.38;75056.97;5005312;28;61922;-83
2023/05/31 04:04:22;;;;;;;;;8.75;7.75;;;;;-146.67;35.12;75046.97;5018288;28;63025;-84
2023/05/31 04:06:47;;;;;;;;;0.00;0.00;;;;;-146.67;35.34;75040.97;4986066;28;61912;-83
2023/05/31 04:09:13;;;;;;;;;15.00;12.75;;;;;-146.67;35.28;75044.97;5003310;28;61781;-83
2023/05/31 04:11:38;;;;;;;;;12.00;10.50;;;;;-146.67;35.27;75044.97;5003493;28;61725;-83
2023/05/31 04:14:03;;;;;;;;;21.00;14.50;;;;;-146.67;35.19;75037.00;5018506;28;61864;-83
2023/05/31 04:16:29;;;;;;;;;19.75;15.75;;;;;-146.67;35.01;75031.00;5022660;28;61874;-83
2023/05/31 04:18:54;;;;;;;;;8.00;8.00;;;;;-146.67;34.99;75021.00;5005142;28;61908;-83
2023/05/31 04:21:20;;;;;;;;;19.50;16.50;;;;;-146.67;35.25;75031.00;5022824;28;61966;-83
2023/05/31 04:23:46;;;;;;;;;20.00;11.25;;;;;-146.67;34.99;75023.00;5004480;28;63549;-83
2023/05/31 04:26:16;;;;;;;;;26.50;19.00;;;;;-146.67;35.18;75015.03;5022467;28;61721;-83
2023/05/31 04:28:41;;;;;;;;;8.75;7.00;;;;;-146.67;34.86;75013.03;5023202;28;61674;-83
2023/05/31 04:31:07;;;;;;;;;15.75;15.00;;;;;-146.67;34.88;75009.03;5004452;28;62021;-83
2023/05/31 04:33:33;;;;;;;;;16.75;14.00;;;;;-146.67;34.99;75017.03;5022181;28;62020;-83
2023/05/31 04:35:58;;;;;;;;;11.25;5.75;;;;;-146.67;34.89;75009.03;5023352;28;61862;-83
2023/05/31 04:38:27;;;;;;;;;13.75;11.00;;;;;-146.67;35.04;74999.06;5004669;28;61898;-83
2023/05/31 04:40:54;;;;;;;;;21.00;15.25;;;;;-146.67;34.88;74995.06;5004552;28;61897;-83
2023/05/31 04:43:19;;;;;;;;;0.00;0.00;;;;;-146.67;34.70;74983.06;5004327;28;64931;-83
2023/05/31 04:45:45;;;;;;;;;0.00;0.00;;;;;-146.67;34.69;74975.09;5004517;28;61908;-83
2023/05/31 04:48:11;;;;;;;;;0.00;0.00;;;;;-146.67;34.65;74967.09;5004093;28;61975;-83
2023/05/31 04:50:37;;;;;;;;;7.50;7.50;;;;;-146.67;34.68;74963.13;5005071;28;62158;-83
2023/05/31 04:53:03;;;;;;;;;0.00;0.00;;;;;-146.67;34.46;74957.13;5004309;28;64002;-83
2023/05/31 04:55:28;;;;;;;;;16.00;13.25;;;;;-146.67;34.42;74965.09;5010584;28;61820;-83
2023/05/31 04:57:54;;;;;;;;;13.50;12.50;;;;;-146.67;34.49;74961.13;5002743;28;61879;-83
2023/05/31 05:00:19;;;;;;;;;13.00;12.50;;;;;-146.67;34.39;74953.13;5001605;28;62015;-83
2023/05/31 05:02:45;;;;;;;;;13.00;12.50;;;;;-146.67;34.77;74963.13;5001494;28;61749;-86
2023/05/31 05:05:11;;;;;;;;;20.75;14.50;;;;;-146.67;34.90;74963.13;5019448;28;61865;-84
2023/05/31 05:07:37;;;;;;;;;0.00;0.00;;;;;-146.67;34.65;74951.13;5022742;28;61919;-82
2023/05/31 05:10:03;;;;;;;;;18.50;14.00;;;;;-146.67;34.61;74955.13;5022439;28;62034;-80
2023/05/31 05:12:29;;;;;;;;;0.00;0.00;;;;;-146.67;34.44;74943.16;5003975;28;63863;-80
2023/05/31 05:14:54;;;;;;;;;0.00;0.00;;;;;-146.67;34.42;74937.16;5005058;28;62389;-81
2023/05/31 05:17:20;;;;;;;;;16.50;12.00;;;;;-146.67;34.39;74919.19;5021521;28;61835;-81
2023/05/31 05:19:45;;;;;;;;;7.75;7.50;;;;;-146.67;34.25;74911.19;5021942;28;61815;-81
2023/05/31 05:22:11;;;;;;;;;8.00;7.00;;;;;-146.67;33.96;74897.22;5018767;28;63060;-82
2023/05/31 05:24:36;;;;;;;;;8.75;6.75;;;;;-146.67;34.13;74893.22;5021060;28;61983;-82
2023/05/31 05:27:02;;;;;;;;;9.50;8.50;;;;;-146.67;33.92;74879.25;5021257;28;62164;-82
2023/05/31 05:29:28;;;;;;;;;0.00;0.00;;;;;-146.67;34.00;74891.22;5021485;28;62000;-83
2023/05/31 05:31:53;;;;;;;;;11.25;9.25;;;;;-146.67;33.67;74863.28;5002222;28;64995;-82
2023/05/31 05:34:23;;;;;;;;;0.00;0.00;;;;;-146.67;33.16;74829.34;5019000;28;61855;-82
2023/05/31 05:36:52;;;;;;;;;11.75;8.00;;;;;-146.67;33.13;74771.44;5021431;28;61784;-83
2023/05/31 05:39:18;;;;;;;;;0.00;0.00;;;;;-146.67;32.21;74699.56;5020530;28;62144;-83
2023/05/31 05:41:49;;;;;;;;;0.00;0.00;;;;;-146.67;31.85;74645.66;5019502;28;63274;-79
2023/05/31 05:44:15;;;;;;;;;0.00;0.00;;;;;-146.67;31.50;74581.75;5019448;28;61856;-79
2023/05/31 05:46:41;;;;;;;;;0.00;0.00;;;;;-146.67;30.94;74491.94;5019846;28;62528;-79
2023/05/31 05:49:06;;;;;;;;;0.00;0.00;;;;;-146.67;30.71;74485.94;5003022;28;62057;-79
2023/05/31 05:51:32;;;;;;;;;0.00;0.00;;;;;-146.67;30.57;74461.97;5002490;28;64650;-79
2023/05/31 05:53:57;;;;;;;;;0.00;0.00;;;;;-146.67;29.95;74382.13;5020875;28;62103;-80
2023/05/31 05:56:22;;;;;;;;;0.00;0.00;;;;;-146.67;29.95;74388.09;5021218;28;62363;-80
2023/05/31 05:58:48;;;;;;;;;0.00;0.00;;;;;-146.67;30.23;74400.09;5003058;28;61833;-80
2023/05/31 06:01:18;;;;;;;;;0.00;0.00;;;;;-146.67;30.21;74414.06;5002309;28;64498;-79
2023/05/31 06:03:49;;;;;;;;;0.00;0.00;;;;;-146.67;30.09;74422.03;5016021;28;61974;-80
2023/05/31 06:06:16;;;;;;;;;0.00;0.00;;;;;-146.67;29.84;74422.03;5016899;28;61799;-80
2023/05/31 06:08:42;;;;;;;;;0.00;0.00;;;;;-146.67;29.93;74422.03;5004641;28;61909;-80
2023/05/31 06:11:08;;;;;;;;;0.00;0.00;;;;;-146.67;30.30;74414.06;5024494;28;61875;-81
2023/05/31 06:13:33;;;;;;;;;0.00;0.00;;;;;-146.67;30.03;74398.09;5023276;28;62401;-81
2023/05/31 06:15:58;;;;;;;;;0.00;0.00;;;;;-146.67;29.87;74378.13;5024618;28;62428;-81
2023/05/31 06:18:24;;;;;;;;;0.00;0.00;;;;;-146.67;29.43;74334.22;5024645;28;61863;-81
2023/05/31 06:20:49;;;;;;;;;0.00;0.00;;;;;-146.67;29.07;74310.25;5023765;28;61985;-81
2023/05/31 06:23:15;;;;;;;;;0.00;0.00;;;;;-146.67;28.60;74208.44;5023339;28;62222;-81
2023/05/31 06:25:41;;;;;;;;;0.00;0.00;;;;;-146.67;28.13;74142.56;5003301;28;62554;-81
2023/05/31 06:28:06;;;;;;;;;0.00;0.00;;;;;-146.67;28.22;74150.53;5002070;28;61828;-81
2023/05/31 06:30:32;;;;;;;;;0.00;0.00;;;;;-146.67;28.03;74158.53;5024035;28;61925;-78
2023/05/31 06:32:57;;;;;;;;;0.00;0.00;;;;;-146.67;28.09;74104.63;5023137;28;61739;-77
2023/05/31 06:35:22;;;;;;;;;0.00;0.00;;;;;-146.67;27.87;74156.53;5012317;28;62028;-83
2023/05/31 06:37:48;;;;;;;;;0.00;0.00;;;;;-146.67;28.37;74216.44;5009665;28;61731;-82
2023/05/31 06:40:14;;;;;;;;;0.00;0.00;;;;;-146.67;28.79;74266.34;4986651;28;64748;-81
2023/05/31 06:42:40;;;;;;;;;0.00;0.00;;;;;-146.67;28.81;74310.25;4986887;28;61776;-80
2023/05/31 06:45:06;;;;;;;;;0.00;0.00;;;;;-146.67;29.35;74338.19;5004392;28;61930;-80
2023/05/31 06:47:31;;;;;;;;;0.00;0.00;;;;;-146.67;29.11;74352.19;5003970;28;61799;-81
2023/05/31 06:49:56;;;;;;;;;0.00;0.00;;;;;-146.67;29.16;74362.16;4986041;28;65025;-81
2023/05/31 06:52:22;;;;;;;;;0.00;0.00;;;;;-146.67;29.41;74374.13;5005804;28;61996;-81
2023/05/31 06:54:49;;;;;;;;;0.00;0.00;;;;;-146.67;29.28;74396.09;5024293;28;61867;-77
2023/05/31 06:57:15;;;;;;;;;0.00;0.00;;;;;-146.67;29.65;74408.06;5024620;28;61991;-77
2023/05/31 06:59:40;;;;;;;;;0.00;0.00;;;;;-146.67;29.66;74420.06;5023919;28;62940;-78
2023/05/31 07:02:06;;;;;;;;;0.00;0.00;;;;;-146.67;29.52;74420.06;5023359;28;61787;-78
2023/05/31 07:04:32;;;;;;;;;0.00;0.00;;;;;-146.67;29.99;74426.03;5006189;28;62176;-80
2023/05/31 07:06:57;;;;;;;;;0.00;0.00;;;;;-146.67;29.94;74436.03;5023900;28;61771;-80
2023/05/31 07:09:23;;;;;;;;;0.00;0.00;;;;;-146.67;29.94;74438.03;5005825;28;63948;-80
2023/05/31 07:11:48;;;;;;;;;0.00;0.00;;;;;-146.67;29.78;74438.03;5024159;28;61724;-81
2023/05/31 07:14:14;;;;;;;;;0.00;0.00;;;;;-146.67;29.90;74440.00;5006028;28;62002;-79
2023/05/31 07:16:39;;;;;;;;;0.00;0.00;;;;;-146.67;29.65;74446.00;5022769;28;61978;-77
2023/05/31 07:19:05;;;;;;;;;0.00;0.00;;;;;-146.67;29.77;74454.00;5021454;28;62585;-79
2023/05/31 07:21:30;;;;;;;;;0.00;0.00;;;;;-146.67;29.91;74456.00;5004779;28;62182;-80
2023/05/31 07:23:56;;;;;;;;;0.00;0.00;;;;;-146.67;30.11;74454.00;5004966;28;61962;-80
2023/05/31 07:26:22;;;;;;;;;0.00;0.00;;;;;-146.67;30.10;74450.00;5023038;28;61868;-81
2023/05/31 07:28:48;;;;;;;;;0.00;0.00;;;;;-146.67;30.17;74454.00;5022449;28;62149;-80
2023/05/31 07:31:15;;;;;;;;;0.00;0.00;;;;;-146.67;29.89;74461.97;5022837;28;61878;-80
2023/05/31 07:33:41;;;;;;;;;0.00;0.00;;;;;-146.67;30.43;74469.97;5014630;28;62041;-79
2023/05/31 07:36:07;;;;;;;;;0.00;0.00;;;;;-146.67;30.04;74467.97;5006290;28;61763;-80
2023/05/31 07:38:32;;;;;;;;;0.00;0.00;;;;;-146.67;30.17;74459.97;5023224;28;61938;-80
2023/05/31 07:40:58;;;;;;;;;0.00;0.00;;;;;-146.67;30.03;74457.97;5005435;28;61887;-76
2023/05/31 07:43:24;;;;;;;;;0.00;0.00;;;;;-146.67;30.14;74465.97;5021765;28;62484;-77
2023/05/31 07:45:51;;;;;;;;;0.00;0.00;;;;;-146.67;30.14;74467.97;5004232;28;62098;-79
2023/05/31 07:48:17;;;;;;;;;0.00;0.00;;;;;-146.67;29.98;74471.97;5019550;28;62850;-78
2023/05/31 07:50:43;;;;;;;;;0.00;0.00;;;;;-146.67;29.97;74475.94;5005114;28;62060;-78
2023/05/31 07:53:09;;;;;;;;;0.00;0.00;;;;;-146.67;30.38;74471.97;5004680;28;61958;-80
2023/05/31 07:55:35;;;;;;;;;0.00;0.00;;;;;-146.67;30.32;74467.97;5023885;28;61760;-79
2023/05/31 07:58:00;;;;;;;;;0.00;0.00;;;;;-146.67;30.27;74463.97;5004449;28;63651;-80
2023/05/31 08:00:26;;;;;;;;;0.00;0.00;;;;;-146.67;30.21;74456.00;5005328;28;61827;-79
2023/05/31 08:02:51;;;;;;;;;0.00;0.00;;;;;-146.67;30.31;74454.00;5023035;28;62181;-80
2023/05/31 08:05:17;;;;;;;;;0.00;0.00;;;;;-146.67;30.43;74463.97;5022586;28;62123;-81
2023/05/31 08:07:42;;;;;;;;;0.00;0.00;;;;;-146.67;30.27;74456.00;5022707;28;61952;-80
2023/05/31 08:10:07;;;;;;;;;0.00;0.00;;;;;-146.67;30.14;74450.00;5023003;28;61878;-81
2023/05/31 08:12:33;;;;;;;;;0.00;0.00;;;;;-146.67;30.15;74454.00;5005132;28;62004;-81
2023/05/31 08:14:59;;;;;;;;;0.00;0.00;;;;;-146.67;30.29;74452.00;5005497;28;62157;-81
2023/05/31 08:17:24;;;;;;;;;0.00;0.00;;;;;-146.67;30.01;74448.00;5021692;28;61870;-79
2023/05/31 08:19:50;;;;;;;;;0.00;0.00;;;;;-146.67;30.09;74444.00;5022684;28;61622;-81
2023/05/31 08:22:15;;;;;;;;;0.00;0.00;;;;;-146.67;29.95;74448.00;5005002;28;61976;-82
2023/05/31 08:24:41;;;;;;;;;0.00;0.00;;;;;-146.67;30.30;74448.00;5023286;28;61698;-77
2023/05/31 08:27:06;;;;;;;;;0.00;0.00;;;;;-146.67;30.24;74444.00;5004947;28;65030;-80
2023/05/31 08:29:33;;;;;;;;;0.00;0.00;;;;;-146.67;30.49;74442.00;5022660;28;62234;-80
2023/05/31 08:31:58;;;;;;;;;0.00;0.00;;;;;-146.67;30.29;74438.03;5004021;28;61879;-81
2023/05/31 08:34:24;;;;;;;;;0.00;0.00;;;;;-146.67;30.06;74422.03;5004546;28;62056;-79
2023/05/31 08:36:50;;;;;;;;;0.00;0.00;;;;;-146.67;29.95;74426.03;5022185;28;62695;-80
2023/05/31 08:39:15;;;;;;;;;0.00;0.00;;;;;-146.67;30.33;74422.03;5022840;28;62044;-80
2023/05/31 08:42:00;;;;;;;;;0.00;0.00;;;;;-146.67;30.18;74414.06;5021041;28;61897;-80
2023/05/31 08:44:27;;;;;;;;;0.00;0.00;;;;;-146.67;30.28;74406.06;5001944;28;62325;-80
2023/05/31 08:46:56;;;;;;;;;0.00;0.00;;;;;-146.67;29.80;74406.06;5003009;28;63784;-81
2023/05/31 08:49:22;;;;;;;;;0.00;0.00;;;;;-146.67;30.48;74404.09;5021912;28;61745;-82
2023/05/31 08:51:48;;;;;;;;;0.00;0.00;;;;;-146.67;30.36;74396.09;5004325;28;61982;-79
2023/05/31 08:54:16;;;;;;;;;0.00;0.00;;;;;-146.67;30.37;74396.09;5022702;28;61775;-79
2023/05/31 08:56:43;;;;;;;;;0.00;0.00;;;;;-146.67;30.35;74386.13;5021775;28;61738;-80
2023/05/31 08:59:16;;;;;;;;;0.00;0.00;;;;;-146.67;30.17;74388.09;5022158;28;62017;-78
2023/05/31 09:01:43;;;;;;;;;0.00;0.00;;;;;-146.67;30.02;74386.13;5018999;28;62235;-78
2023/05/31 09:04:09;;;;;;;;;0.00;0.00;;;;;-146.67;30.22;74384.13;5003401;28;62089;-79
2023/05/31 09:06:35;;;;;;;;;0.00;0.00;;;;;-146.67;30.31;74374.13;5003427;28;63965;-80
2023/05/31 09:09:02;;;;;;;;;0.00;0.00;;;;;-146.67;30.20;74368.16;5004374;28;62186;-79
2023/05/31 09:11:28;;;;;;;;;0.00;0.00;;;;;-146.67;30.32;74366.16;5003700;28;62568;-80
2023/05/31 09:13:54;;;;;;;;;0.00;0.00;;;;;-146.67;30.06;74358.16;5003958;28;62144;-81
2023/05/31 09:16:22;;;;;;;;;0.00;0.00;;;;;-146.67;30.15;74350.19;5021291;28;62397;-82
2023/05/31 09:18:47;;;;;;;;;0.00;0.00;;;;;-146.67;29.98;74344.19;5021180;28;61783;-79
2023/05/31 09:21:14;;;;;;;;;0.00;0.00;;;;;-146.67;29.73;74338.19;5004427;28;62014;-80
2023/05/31 09:23:56;;;;;;;;;0.00;0.00;;;;;-146.67;29.96;74328.22;5022175;28;62277;-80
2023/05/31 09:26:23;;;;;;;;;0.00;0.00;;;;;-146.67;29.75;74322.22;5003646;28;64132;-81
2023/05/31 09:28:53;;;;;;;;;0.00;0.00;;;;;-146.67;29.77;74310.25;5003369;28;61787;-80
2023/05/31 09:31:19;;;;;;;;;0.00;0.00;;;;;-146.67;29.94;74304.25;5021295;28;61897;-84
2023/05/31 09:33:51;;;;;;;;;0.00;0.00;;;;;-146.67;29.67;74302.25;5021391;28;62042;-80
2023/05/31 09:36:25;;;;;;;;;0.00;0.00;;;;;-146.67;29.75;74284.28;5020687;28;63000;-77
2023/05/31 09:38:51;;;;;;;;;0.00;0.00;;;;;-146.67;29.80;74280.31;5002843;28;61993;-77
2023/05/31 09:41:21;;;;;;;;;0.00;0.00;;;;;-146.67;29.77;74276.31;5021292;28;61767;-78
2023/05/31 09:43:48;;;;;;;;;0.00;0.00;;;;;-146.67;29.58;74266.34;5022513;28;62165;-78
2023/05/31 09:46:15;;;;;;;;;0.00;0.00;;;;;-146.67;29.34;74250.38;5023860;28;63021;-81
2023/05/31 09:48:41;;;;;;;;;0.00;0.00;;;;;-146.67;29.72;74246.38;5007220;28;61993;-83
2023/05/31 09:51:11;;;;;;;;;0.00;0.00;;;;;-146.67;29.51;74230.41;5007197;28;61952;-81
2023/05/31 09:53:39;;;;;;;;;1.00;1.00;;;;;-146.67;29.25;74212.44;5025448;28;61895;-81
2023/05/31 09:56:09;;;;;;;;;0.00;0.00;;;;;-146.67;28.98;74202.44;5006663;28;65006;-79
2023/05/31 09:58:34;;;;;;;;;0.00;0.00;;;;;-146.67;29.24;74190.47;5025595;28;62129;-80
2023/05/31 10:01:00;;;;;;;;;0.00;0.00;;;;;-146.67;29.14;74172.50;5024179;28;62227;-79
2023/05/31 10:03:28;;;;;;;;;0.00;0.00;;;;;-146.67;28.85;74160.53;5004834;28;62117;-78
2023/05/31 10:05:54;;;;;;;;;0.00;0.00;;;;;-146.67;28.67;74146.56;5020975;28;63084;-82
2023/05/31 10:08:22;;;;;;;;;0.00;0.00;;;;;-146.67;29.04;74128.59;5006293;28;61980;-83
2023/05/31 10:10:47;;;;;;;;;0.00;0.00;;;;;-146.67;28.81;74118.59;5024440;28;61751;-81
2023/05/31 10:13:15;;;;;;;;;0.00;0.00;;;;;-146.67;28.96;74106.63;5024524;28;61840;-81
2023/05/31 10:15:46;;;;;;;;;0.00;0.00;;;;;-146.67;28.70;74086.66;5003506;28;63615;-82
2023/05/31 10:18:16;;;;;;;;;0.00;0.00;;;;;-146.67;28.49;74064.72;5021037;28;61796;-79
2023/05/31 10:20:52;;;;;;;;;0.00;0.00;;;;;-146.67;28.18;74056.72;5006783;28;61956;-81
2023/05/31 10:23:23;;;;;;;;;0.00;0.00;;;;;-146.67;28.53;74044.75;5006796;28;61972;-79
2023/05/31 10:26:09;;;;;;;;;0.00;0.00;;;;;-146.67;28.45;74028.78;5024376;28;62997;-80
2023/05/31 10:28:43;;;;;;;;;0.00;0.00;;;;;-146.67;28.05;74014.81;5024673;28;62179;-79
2023/05/31 10:31:11;;;;;;;;;0.00;0.00;;;;;-146.67;27.99;73996.84;5005983;28;61836;-80
2023/05/31 10:33:42;;;;;;;;;0.00;0.00;;;;;-146.67;27.86;73980.88;5006858;28;62089;-80
2023/05/31 10:36:09;;;;;;;;;0.00;0.00;;;;;-146.67;27.76;73962.91;5024117;28;61796;-79
2023/05/31 10:38:55;;;;;;;;;0.00;0.00;;;;;-146.67;27.72;73948.94;5024699;28;61823;-80
2023/05/31 10:41:26;;;;;;;;;0.00;0.00;;;;;-146.67;27.74;73934.94;5006236;28;61907;-80
2023/05/31 10:44:00;;;;;;;;;0.00;0.00;;;;;-146.67;27.56;73917.00;5006356;28;62009;-80
2023/05/31 10:46:29;;;;;;;;;0.00;0.00;;;;;-146.67;27.33;73909.00;5023548;28;62093;-79
2023/05/31 10:48:57;;;;;;;;;0.00;0.00;;;;;-146.67;27.13;73893.03;5023966;28;61859;-79
2023/05/31 10:51:46;;;;;;;;;0.00;0.00;;;;;-146.67;27.01;73875.06;5006389;28;61920;-79
2023/05/31 10:54:30;;;;;;;;;0.00;0.00;;;;;-146.67;27.04;73853.13;5023763;28;61832;-79
2023/05/31 10:56:57;;;;;;;;;0.00;0.00;;;;;-146.67;26.70;73839.13;5023861;28;61968;-81
2023/05/31 10:59:24;;;;;;;;;0.00;0.00;;;;;-146.67;26.82;73831.16;5005849;28;61795;-80
2023/05/31 11:01:50;;;;;;;;;0.00;0.00;;;;;-146.67;26.66;73819.19;5023857;28;61836;-79
2023/05/31 11:04:24;;;;;;;;;0.00;0.00;;;;;-146.67;26.47;73807.19;5006419;28;62388;-83
2023/05/31 11:07:29;;;;;;;;;0.00;0.00;;;;;-146.67;26.73;73789.25;5023333;28;62010;-82
2023/05/31 11:09:59;;;;;;;;;0.00;0.00;;;;;-146.67;26.55;73773.28;5008470;28;62189;-78
2023/05/31 11:12:40;;;;;;;;;0.00;0.00;;;;;-146.67;26.63;73765.28;5020846;28;61835;-82
2023/05/31 11:15:13;;;;;;;;;0.00;0.00;;;;;-146.67;26.68;73743.31;5000778;28;61913;-78